Time;durP1;ratioP1;P1;durP2;ratioP2;P2;SDS_P1;SDS_P2;PMS_P1;PMS_P2;Temp;Humidity;BMP_temperature;BMP_pressure;BME280_temperature;BME280_humidity;BME280_pressure;Samples;Min_cycle;Max_cycle;Signal;HPM_P1;HPM_P2
2022/08/05 00:00:59;;;;;;;10.47;9.77;;;;;;;18.79;68.26;92999.59;5048499;28;20236;-74
2022/08/05 00:03:25;;;;;;;9.87;9.27;;;;;;;18.86;67.37;92999.88;5049430;28;20220;-75
2022/08/05 00:05:50;;;;;;;9.67;9.17;;;;;;;18.59;67.51;92968.59;5048073;28;20225;-75
2022/08/05 00:08:15;;;;;;;42.83;13.93;;;;;;;18.66;71.33;92971.50;5048052;28;20218;-74
2022/08/05 00:10:41;;;;;;;11.30;9.37;;;;;;;18.82;69.47;92991.03;5048420;28;20234;-74
2022/08/05 00:13:06;;;;;;;8.43;7.93;;;;;;;18.92;67.60;93005.78;5048831;28;20200;-75
2022/08/05 00:15:31;;;;;;;9.87;9.13;;;;;;;18.81;67.26;92996.66;5048605;28;20221;-73
2022/08/05 00:17:57;;;;;;;10.10;9.50;;;;;;;18.90;66.68;92990.22;5048842;28;20244;-74
2022/08/05 00:20:22;;;;;;;9.83;9.33;;;;;;;18.75;67.82;92966.97;5047466;28;21110;-75
2022/08/05 00:22:47;;;;;;;10.10;9.30;;;;;;;18.74;69.35;92975.97;5048937;28;20207;-74
2022/08/05 00:25:13;;;;;;;9.77;9.00;;;;;;;18.89;69.34;92998.47;5048542;28;20773;-75
2022/08/05 00:27:38;;;;;;;9.50;8.97;;;;;;;18.76;69.76;92994.97;5048854;28;20179;-74
2022/08/05 00:30:04;;;;;;;10.87;10.17;;;;;;;18.40;70.04;92935.69;5048147;28;20251;-75
2022/08/05 00:32:30;;;;;;;9.23;8.63;;;;;;;18.86;70.04;92993.81;5048754;28;20193;-74
2022/08/05 00:34:55;;;;;;;9.20;8.70;;;;;;;18.83;70.33;92989.16;5046873;28;20311;-74
2022/08/05 00:37:20;;;;;;;9.63;8.93;;;;;;;18.80;69.87;92997.75;5048902;28;20212;-75
2022/08/05 00:39:46;;;;;;;8.77;8.27;;;;;;;18.68;70.12;92987.03;5048363;28;20228;-74
2022/08/05 00:42:15;;;;;;;10.87;10.13;;;;;;;18.68;71.54;92989.69;5047430;28;20188;-74
2022/08/05 00:44:40;;;;;;;9.33;8.83;;;;;;;18.70;71.04;92984.88;5049421;28;20228;-74
2022/08/05 00:47:06;;;;;;;10.13;9.53;;;;;;;18.69;69.78;92983.31;5052234;28;20196;-75
2022/08/05 00:49:31;;;;;;;11.30;10.50;;;;;;;18.56;69.36;92969.22;5051560;28;20311;-75
2022/08/05 00:51:57;;;;;;;9.73;9.13;;;;;;;18.46;68.99;92955.59;5051862;28;20924;-75
2022/08/05 00:54:22;;;;;;;10.83;9.90;;;;;;;18.56;71.26;92971.09;5051662;28;20208;-74
2022/08/05 00:56:47;;;;;;;9.10;8.50;;;;;;;18.50;71.01;92964.44;5051775;28;20174;-73
2022/08/05 00:59:13;;;;;;;9.33;8.83;;;;;;;18.46;70.32;92979.38;5047978;28;20257;-75
2022/08/05 01:01:38;;;;;;;10.17;9.57;;;;;;;18.18;71.09;92947.25;5051204;28;20196;-75
2022/08/05 01:04:04;;;;;;;9.97;9.40;;;;;;;18.20;72.11;92957.50;5051603;28;20181;-75
2022/08/05 01:06:29;;;;;;;10.87;10.07;;;;;;;18.17;71.30;92966.06;5049970;28;20251;-75
2022/08/05 01:08:54;;;;;;;10.83;10.13;;;;;;;18.10;71.49;92961.25;5051878;28;20184;-74
2022/08/05 01:11:28;;;;;;;9.73;9.23;;;;;;;18.19;71.44;92982.41;5051314;28;20234;-75
2022/08/05 01:14:05;;;;;;;9.30;8.53;;;;;;;18.17;72.18;92992.50;5050365;28;20262;-75
2022/08/05 01:16:46;;;;;;;9.90;9.20;;;;;;;18.14;71.95;92980.69;5050207;28;20238;-75
2022/08/05 01:19:20;;;;;;;9.83;9.27;;;;;;;18.27;71.65;92982.34;5050790;28;20243;-75
2022/08/05 01:21:57;;;;;;;9.67;9.17;;;;;;;18.14;71.23;92983.34;5051221;28;20210;-75
2022/08/05 01:24:46;;;;;;;8.97;8.47;;;;;;;18.05;72.81;92969.38;5051088;28;20187;-75
2022/08/05 01:27:44;;;;;;;9.73;9.10;;;;;;;18.11;72.83;92988.47;5051004;28;20218;-75
2022/08/05 01:30:11;;;;;;;9.70;8.80;;;;;;;18.00;71.34;92968.75;5024812;28;20248;-75
2022/08/05 01:32:39;;;;;;;10.10;9.50;;;;;;;18.13;71.60;92983.66;5050802;28;20184;-75
2022/08/05 01:35:11;;;;;;;9.73;9.07;;;;;;;18.02;72.57;92990.38;5047633;28;20230;-75
2022/08/05 01:37:44;;;;;;;9.93;9.23;;;;;;;18.00;72.99;92977.47;5051421;28;20328;-74
2022/08/05 01:40:11;;;;;;;9.47;8.97;;;;;;;17.95;72.67;92979.50;5050053;28;20238;-75
2022/08/05 01:42:39;;;;;;;10.00;9.47;;;;;;;17.71;72.72;92969.44;5051073;28;20191;-74
2022/08/05 01:45:06;;;;;;;10.20;9.53;;;;;;;17.57;73.46;92953.75;5050177;28;20227;-75
2022/08/05 01:47:34;;;;;;;10.00;9.37;;;;;;;17.68;74.56;92985.13;5050524;28;20196;-74
2022/08/05 01:50:03;;;;;;;9.03;8.50;;;;;;;17.75;73.79;92969.59;5048009;28;20269;-74
2022/08/05 01:52:31;;;;;;;11.27;10.40;;;;;;;17.65;74.61;92986.53;5050091;28;20199;-75
2022/08/05 01:55:00;;;;;;;9.90;9.27;;;;;;;17.57;74.89;92969.59;5049832;28;20256;-76
2022/08/05 01:57:32;;;;;;;9.80;9.30;;;;;;;17.43;74.97;92965.56;5047342;28;20194;-75
2022/08/05 02:00:00;;;;;;;9.70;8.97;;;;;;;17.63;74.72;92992.13;5050041;28;20322;-75
2022/08/05 02:02:28;;;;;;;10.70;9.80;;;;;;;17.65;75.50;92993.69;5075137;28;20249;-74
2022/08/05 02:04:57;;;;;;;10.90;10.10;;;;;;;17.50;76.33;92984.38;5050498;28;20230;-74
2022/08/05 02:07:23;;;;;;;10.67;9.97;;;;;;;17.61;75.70;92982.97;5050466;28;20213;-75
2022/08/05 02:09:49;;;;;;;9.93;9.13;;;;;;;17.62;75.17;92981.09;5047714;28;20249;-74
2022/08/05 02:12:32;;;;;;;10.80;10.10;;;;;;;17.63;75.44;92992.13;5046640;28;20201;-75
2022/08/05 02:15:07;;;;;;;10.20;9.50;;;;;;;17.34;76.83;92991.94;5050035;28;20238;-75
2022/08/05 02:17:38;;;;;;;11.03;10.17;;;;;;;17.27;78.17;92985.56;5049870;28;20223;-74
2022/08/05 02:20:10;;;;;;;10.90;10.27;;;;;;;17.09;76.91;92942.56;5049379;28;21001;-75
2022/08/05 02:22:40;;;;;;;10.33;9.57;;;;;;;17.30;76.90;92979.69;5050488;28;20176;-74
2022/08/05 02:25:23;;;;;;;12.07;10.90;;;;;;;17.35;77.18;92988.19;5049712;28;20219;-75
2022/08/05 02:27:50;;;;;;;9.87;9.13;;;;;;;17.24;77.04;92986.97;5049934;28;20246;-74
2022/08/05 02:30:16;;;;;;;9.57;8.97;;;;;;;17.20;76.40;92982.59;5049893;28;20236;-75
2022/08/05 02:32:46;;;;;;;11.00;10.13;;;;;;;17.18;76.29;92988.19;5050188;28;20174;-75
2022/08/05 02:35:15;;;;;;;10.47;9.77;;;;;;;17.20;76.18;92986.03;5048916;28;20293;-74
2022/08/05 02:37:43;;;;;;;11.60;10.80;;;;;;;17.18;75.36;92977.63;5049954;28;20182;-77
2022/08/05 02:40:09;;;;;;;10.33;9.67;;;;;;;17.28;74.72;92982.63;5048865;28;20241;-75
2022/08/05 02:42:37;;;;;;;10.03;9.47;;;;;;;16.75;75.53;92910.88;5044837;28;20174;-74
2022/08/05 02:45:03;;;;;;;10.27;9.67;;;;;;;17.24;76.87;92986.97;5048574;28;20272;-75
2022/08/05 02:47:33;;;;;;;10.53;9.93;;;;;;;17.28;76.35;92968.66;5047844;28;20187;-76
2022/08/05 02:50:00;;;;;;;11.63;10.77;;;;;;;17.33;76.25;92979.84;5043957;28;20224;-75
2022/08/05 02:52:26;;;;;;;11.17;10.33;;;;;;;17.18;75.97;92951.25;5050120;28;20246;-74
2022/08/05 02:54:53;;;;;;;11.27;10.47;;;;;;;16.96;76.37;92925.03;5048336;28;20228;-75
2022/08/05 02:57:20;;;;;;;11.47;10.57;;;;;;;17.28;76.85;92977.34;5050174;28;20191;-75
2022/08/05 02:59:48;;;;;;;10.97;10.37;;;;;;;17.26;77.18;92976.88;5048811;28;20246;-75
2022/08/05 03:02:18;;;;;;;10.50;9.73;;;;;;;17.21;76.55;92979.66;5049326;28;20175;-75
2022/08/05 03:04:44;;;;;;;10.70;10.10;;;;;;;17.17;76.73;92976.09;5048987;28;20237;-75
2022/08/05 03:07:11;;;;;;;9.20;8.63;;;;;;;17.24;76.17;92976.44;5050103;28;20190;-76
2022/08/05 03:09:40;;;;;;;9.97;9.37;;;;;;;17.22;76.17;92977.81;5047655;28;20218;-75
2022/08/05 03:12:06;;;;;;;10.70;9.90;;;;;;;17.08;76.21;92962.13;5049419;28;20613;-75
2022/08/05 03:14:31;;;;;;;10.53;9.83;;;;;;;16.96;76.90;92954.06;5048914;28;20223;-75
2022/08/05 03:16:57;;;;;;;9.83;9.30;;;;;;;16.97;77.33;92950.31;5044373;28;20237;-76
2022/08/05 03:19:22;;;;;;;12.23;11.30;;;;;;;16.93;77.68;92949.41;5048361;28;20215;-75
2022/08/05 03:21:48;;;;;;;11.77;10.70;;;;;;;16.92;78.13;92958.38;5049809;28;20239;-74
2022/08/05 03:24:14;;;;;;;10.17;9.63;;;;;;;16.81;78.44;92930.00;5048098;28;20198;-75
2022/08/05 03:26:39;;;;;;;10.17;9.23;;;;;;;16.69;79.00;92933.22;5049595;28;20186;-75
2022/08/05 03:29:05;;;;;;;10.77;10.07;;;;;;;17.11;78.98;92987.88;5046174;28;20183;-75
2022/08/05 03:31:31;;;;;;;10.73;10.10;;;;;;;17.13;78.59;92972.53;5049298;28;20309;-75
2022/08/05 03:33:57;;;;;;;11.47;10.70;;;;;;;17.28;76.86;92960.72;5049088;28;20210;-75
2022/08/05 03:36:24;;;;;;;10.67;9.97;;;;;;;17.31;77.36;92989.91;5048927;28;20241;-75
2022/08/05 03:38:49;;;;;;;10.87;10.17;;;;;;;17.32;78.01;92982.78;5048823;28;20209;-74
2022/08/05 03:41:15;;;;;;;9.90;9.30;;;;;;;17.31;77.17;92971.44;5046592;28;20249;-73
2022/08/05 03:43:41;;;;;;;10.67;9.97;;;;;;;17.38;76.83;92974.41;5047034;28;20195;-75
2022/08/05 03:46:06;;;;;;;10.60;9.97;;;;;;;17.54;76.48;92988.72;5048679;28;20214;-74
2022/08/05 03:48:32;;;;;;;9.97;9.17;;;;;;;17.53;76.58;92986.38;5049185;28;20250;-74
2022/08/05 03:51:06;;;;;;;11.20;10.40;;;;;;;17.57;76.97;92982.81;5047604;28;20221;-74
2022/08/05 03:53:36;;;;;;;11.57;10.27;;;;;;;17.44;77.16;92964.50;5048755;28;20221;-74
2022/08/05 03:56:14;;;;;;;10.10;9.50;;;;;;;17.61;76.86;92985.59;5047218;28;20211;-74
2022/08/05 03:58:43;;;;;;;11.03;10.33;;;;;;;17.62;77.11;92981.09;5046969;28;20250;-75
2022/08/05 04:01:10;;;;;;;11.07;9.70;;;;;;;17.57;76.47;92958.28;5048019;28;20246;-74
2022/08/05 04:03:38;;;;;;;11.27;10.47;;;;;;;17.82;77.25;92977.81;5049095;28;20187;-72
2022/08/05 04:06:05;;;;;;;10.43;9.43;;;;;;;17.86;77.88;92984.00;5047996;28;20226;-75
2022/08/05 04:08:33;;;;;;;10.03;9.43;;;;;;;18.01;77.41;92986.94;5047842;28;20182;-74
2022/08/05 04:11:00;;;;;;;10.03;9.40;;;;;;;18.06;76.55;92973.56;5047959;28;20218;-74
2022/08/05 04:13:27;;;;;;;11.37;10.43;;;;;;;18.13;76.68;92975.72;5048753;28;20206;-74
2022/08/05 04:15:52;;;;;;;10.60;9.97;;;;;;;18.27;76.43;92974.44;5045361;28;20383;-74
2022/08/05 04:18:18;;;;;;;10.50;9.80;;;;;;;18.44;76.79;92990.28;5046527;28;20268;-72
2022/08/05 04:20:43;;;;;;;10.63;9.93;;;;;;;18.48;76.77;92987.75;5050352;28;20211;-73
2022/08/05 04:23:10;;;;;;;10.73;9.77;;;;;;;18.39;76.65;92953.44;5050701;28;20187;-74
2022/08/05 04:25:35;;;;;;;11.10;10.40;;;;;;;18.56;75.95;92971.09;5050672;28;20234;-74
2022/08/05 04:28:00;;;;;;;10.87;10.07;;;;;;;18.57;76.04;92965.47;5052887;28;20210;-72
2022/08/05 04:30:26;;;;;;;12.07;9.77;;;;;;;18.87;74.68;92979.50;5051555;28;20223;-73
2022/08/05 04:32:51;;;;;;;11.23;10.33;;;;;;;18.86;72.01;92967.38;5052140;28;20183;-75
2022/08/05 04:35:17;;;;;;;12.23;11.13;;;;;;;19.17;71.99;92973.84;5050090;28;20716;-74
2022/08/05 04:37:42;;;;;;;12.27;11.00;;;;;;;19.22;73.44;92980.84;5051920;28;20188;-73
2022/08/05 04:40:08;;;;;;;11.07;10.27;;;;;;;19.34;70.20;92962.41;5051067;28;20381;-75
2022/08/05 04:42:34;;;;;;;11.27;10.27;;;;;;;19.86;69.36;92990.00;5050339;28;20189;-75
2022/08/05 04:44:59;;;;;;;10.97;10.30;;;;;;;19.82;70.73;92983.81;5047278;28;20232;-71
2022/08/05 04:47:24;;;;;;;12.50;11.50;;;;;;;19.43;71.01;92976.34;5047519;28;20207;-70
2022/08/05 04:49:50;;;;;;;11.23;10.43;;;;;;;19.67;71.12;92984.41;5047662;28;20237;-70
2022/08/05 04:52:15;;;;;;;11.57;10.57;;;;;;;19.53;71.39;92957.44;5047102;28;20191;-73
2022/08/05 04:54:41;;;;;;;12.27;10.67;;;;;;;19.75;71.40;92988.84;5047847;28;20259;-72
2022/08/05 04:57:06;;;;;;;11.43;10.63;;;;;;;19.74;70.98;92984.66;5048288;28;20200;-70
2022/08/05 04:59:31;;;;;;;11.82;10.88;;;;;;;19.73;69.47;92977.81;5047364;28;20240;-73
2022/08/05 05:01:57;;;;;;;12.37;11.13;;;;;;;19.69;68.92;92962.91;5050408;28;20223;-80
2022/08/05 05:04:23;;;;;;;12.73;11.63;;;;;;;19.79;68.85;92986.34;5050646;28;20221;-72
2022/08/05 05:06:48;;;;;;;13.23;12.07;;;;;;;19.81;69.14;92987.56;5047955;28;20189;-74
2022/08/05 05:09:14;;;;;;;13.10;11.87;;;;;;;19.70;69.77;92986.41;5046739;28;20711;-73
2022/08/05 05:11:39;;;;;;;12.97;11.60;;;;;;;19.92;69.97;92983.41;5046901;28;20877;-73
2022/08/05 05:14:05;;;;;;;13.83;12.63;;;;;;;20.15;69.69;92984.63;5049227;28;20278;-68
2022/08/05 05:16:31;;;;;;;14.83;13.37;;;;;;;20.32;68.82;92987.09;5049372;28;20625;-69
2022/08/05 05:18:56;;;;;;;13.53;12.23;;;;;;;20.31;68.14;92974.16;5049786;28;20205;-68
2022/08/05 05:21:22;;;;;;;12.93;11.73;;;;;;;20.65;67.77;92982.47;5049714;28;20225;-69
2022/08/05 05:23:47;;;;;;;13.95;12.65;;;;;;;20.56;68.29;92981.81;5049998;28;20280;-68
2022/08/05 05:26:12;;;;;;;15.35;12.20;;;;;;;20.69;67.04;92967.44;5048072;28;20230;-69
2022/08/05 05:28:38;;;;;;;14.15;12.80;;;;;;;20.77;67.57;92970.31;5049384;28;20198;-69
2022/08/05 05:31:03;;;;;;;14.83;12.83;;;;;;;20.98;66.82;92976.31;5047532;28;20236;-70
2022/08/05 05:33:28;;;;;;;14.32;12.75;;;;;;;20.95;67.00;92974.31;5049644;28;20276;-71
2022/08/05 05:35:54;;;;;;;12.80;11.63;;;;;;;21.17;66.49;92981.84;5049278;28;20232;-71
2022/08/05 05:38:19;;;;;;;12.38;11.05;;;;;;;21.17;66.35;92965.91;5047806;28;20214;-70
2022/08/05 05:40:45;;;;;;;13.50;12.18;;;;;;;21.28;67.25;92985.56;5048884;28;20223;-71
2022/08/05 05:43:10;;;;;;;12.55;11.55;;;;;;;21.26;67.24;92985.16;5047384;28;20219;-72
2022/08/05 05:45:35;;;;;;;14.30;12.85;;;;;;;21.62;65.72;92987.72;5046839;28;20222;-70
2022/08/05 05:48:04;;;;;;;13.10;11.73;;;;;;;22.36;63.06;92984.44;5046839;28;20247;-71
2022/08/05 05:50:30;;;;;;;14.73;13.27;;;;;;;24.02;57.90;92992.47;5049548;28;20228;-70
2022/08/05 05:52:55;;;;;;;13.27;12.25;;;;;;;25.02;53.48;92976.75;5047489;28;20176;-68
2022/08/05 05:55:21;;;;;;;14.02;12.75;;;;;;;27.32;46.79;92997.84;5044381;28;20261;-68
2022/08/05 05:57:46;;;;;;;12.88;11.77;;;;;;;31.32;38.28;93013.25;5042644;28;20216;-69
2022/08/05 06:00:17;;;;;;;13.05;12.00;;;;;;;31.24;36.49;93006.34;5045837;28;20238;-68
2022/08/05 06:02:43;;;;;;;12.98;11.73;;;;;;;34.65;30.91;93029.50;5043849;28;20183;-69
2022/08/05 06:05:10;;;;;;;11.20;10.40;;;;;;;34.93;30.77;93031.66;5045976;28;20236;-69
2022/08/05 06:07:36;;;;;;;11.52;10.60;;;;;;;37.19;26.54;93041.03;5044735;28;20249;-70
2022/08/05 06:10:03;;;;;;;16.73;11.27;;;;;;;36.19;27.48;93038.00;5046291;28;20226;-70
2022/08/05 06:12:29;;;;;;;12.00;10.98;;;;;;;37.58;26.00;93043.31;5045877;28;20201;-70
2022/08/05 06:14:55;;;;;;;12.27;10.80;;;;;;;37.04;26.16;93039.94;5045978;28;20218;-69
2022/08/05 06:17:20;;;;;;;12.88;11.02;;;;;;;38.42;24.41;93047.97;5046665;28;20249;-69
2022/08/05 06:19:46;;;;;;;11.98;10.80;;;;;;;38.15;24.61;93053.94;5045835;28;20254;-70
2022/08/05 06:22:11;;;;;;;10.95;9.95;;;;;;;38.17;24.76;93042.59;5047575;28;20185;-69
2022/08/05 06:24:41;;;;;;;10.73;9.82;;;;;;;37.99;24.88;93045.91;5047217;28;20285;-69
2022/08/05 06:27:07;;;;;;;11.57;10.52;;;;;;;37.72;24.83;93045.63;5049824;28;20186;-69
2022/08/05 06:29:32;;;;;;;10.43;9.60;;;;;;;36.90;25.65;93034.91;5048620;28;20256;-69
2022/08/05 06:31:57;;;;;;;11.45;9.43;;;;;;;36.00;25.33;93039.66;5047562;28;20285;-69
2022/08/05 06:34:23;;;;;;;11.73;10.60;;;;;;;35.91;26.31;93039.50;5049331;28;20255;-71
2022/08/05 06:36:48;;;;;;;11.82;10.75;;;;;;;32.49;31.20;93014.44;5047859;28;20194;-71
2022/08/05 06:39:14;;;;;;;13.20;11.63;;;;;;;28.61;38.18;93007.72;5047368;28;20218;-73
2022/08/05 06:41:39;;;;;;;12.88;11.65;;;;;;;26.50;45.46;93006.25;5047548;28;20194;-72
2022/08/05 06:44:04;;;;;;;13.77;12.18;;;;;;;25.28;47.38;93000.03;5048822;28;20197;-73
2022/08/05 06:46:30;;;;;;;14.30;12.45;;;;;;;25.37;48.17;92992.56;5047969;28;20227;-73
2022/08/05 06:48:55;;;;;;;13.45;12.25;;;;;;;24.93;50.20;92992.28;5048862;28;20220;-72
2022/08/05 06:51:21;;;;;;;14.65;13.07;;;;;;;24.90;49.95;93000.22;5047838;28;20850;-72
2022/08/05 06:53:47;;;;;;;13.43;12.32;;;;;;;24.83;50.26;93000.09;5047447;28;20205;-71
2022/08/05 06:56:12;;;;;;;14.32;12.90;;;;;;;24.69;50.36;92989.16;5047279;28;20227;-72
2022/08/05 06:58:37;;;;;;;14.38;12.32;;;;;;;24.84;51.15;93007.00;5045518;28;20206;-72
2022/08/05 07:01:05;;;;;;;13.93;12.50;;;;;;;25.11;49.06;92995.19;5048373;28;20237;-72
2022/08/05 07:03:32;;;;;;;14.05;12.85;;;;;;;24.98;49.30;92983.19;5048008;28;20186;-72
2022/08/05 07:05:58;;;;;;;13.25;12.15;;;;;;;24.39;52.06;92997.00;5048214;28;20240;-73
2022/08/05 07:08:27;;;;;;;15.18;13.15;;;;;;;24.00;53.45;93000.06;5046354;28;20193;-72
2022/08/05 07:10:53;;;;;;;13.13;11.82;;;;;;;23.91;53.30;92978.16;5048521;28;20288;-72
2022/08/05 07:18:46;;;;;;;13.13;12.13;;;;;;;24.59;52.97;92997.75;5048474;28;20244;-72
2022/08/05 07:21:13;;;;;;;14.35;11.52;;;;;;;24.47;52.33;93006.69;5048131;28;20236;-72
2022/08/05 07:23:38;;;;;;;13.70;12.43;;;;;;;24.67;51.62;93007.47;5046715;28;20196;-72
2022/08/05 07:26:04;;;;;;;13.07;11.90;;;;;;;24.58;52.13;92988.19;5049082;28;20225;-73
2022/08/05 07:28:29;;;;;;;12.95;11.70;;;;;;;24.50;52.15;93005.22;5049231;28;20194;-72
2022/08/05 07:30:55;;;;;;;13.30;12.00;;;;;;;24.23;52.75;93011.56;5048160;28;20217;-72
2022/08/05 07:33:20;;;;;;;11.70;10.75;;;;;;;24.16;52.88;93008.75;5049079;28;20260;-72
2022/08/05 07:35:46;;;;;;;12.57;11.60;;;;;;;24.80;50.96;92990.91;5049240;28;20244;-72
2022/08/05 07:38:13;;;;;;;11.77;10.70;;;;;;;25.07;49.41;93010.41;5044638;28;20195;-72
2022/08/05 07:40:38;;;;;;;14.23;12.93;;;;;;;25.08;50.49;93004.72;5048104;28;20238;-72
2022/08/05 07:43:04;;;;;;;12.30;11.07;;;;;;;25.03;49.05;92993.53;5049614;28;20186;-72
2022/08/05 07:45:30;;;;;;;11.93;10.95;;;;;;;24.99;51.28;93017.56;5048695;28;20220;-72
2022/08/05 07:47:56;;;;;;;17.23;11.15;;;;;;;24.93;50.23;92983.47;5048683;28;20204;-73
2022/08/05 07:50:21;;;;;;;12.30;10.93;;;;;;;24.92;51.63;93004.06;5045371;28;20236;-72
2022/08/05 07:52:47;;;;;;;11.88;10.88;;;;;;;25.40;50.13;93007.91;5048559;28;20196;-72
2022/08/05 07:55:12;;;;;;;11.02;10.13;;;;;;;25.29;51.10;93001.59;5046665;28;20229;-72
2022/08/05 07:57:37;;;;;;;12.80;11.57;;;;;;;25.92;47.39;93013.19;5048211;28;20197;-73
2022/08/05 08:00:04;;;;;;;13.70;11.02;;;;;;;25.44;50.10;93014.06;5048059;28;20908;-72
2022/08/05 08:02:29;;;;;;;13.70;11.35;;;;;;;25.51;48.67;93006.13;5049000;28;20220;-72
2022/08/05 08:04:55;;;;;;;12.02;10.90;;;;;;;25.51;48.27;93008.81;5047888;28;20241;-73
2022/08/05 08:07:21;;;;;;;11.65;10.57;;;;;;;25.84;47.62;93011.56;5049009;28;20208;-72
2022/08/05 08:09:47;;;;;;;11.65;10.50;;;;;;;26.05;46.82;93016.44;5047606;28;20267;-72
2022/08/05 08:12:13;;;;;;;10.20;9.20;;;;;;;26.06;47.30;93009.94;5048380;28;20190;-72
2022/08/05 08:14:39;;;;;;;11.25;10.23;;;;;;;26.16;44.94;93009.31;5047633;28;20230;-72
2022/08/05 08:17:09;;;;;;;11.00;10.02;;;;;;;26.09;45.76;92974.41;5048316;28;20252;-72
2022/08/05 08:19:35;;;;;;;11.70;10.57;;;;;;;26.66;43.13;93012.16;5047690;28;20353;-72
2022/08/05 08:22:01;;;;;;;11.05;9.85;;;;;;;26.45;43.78;93008.47;5048170;28;20209;-72
2022/08/05 08:24:26;;;;;;;11.05;10.05;;;;;;;26.37;42.74;93009.53;5048041;28;20853;-73
2022/08/05 08:26:51;;;;;;;10.52;9.73;;;;;;;26.19;42.75;93004.00;5048432;28;20206;-72
2022/08/05 08:29:17;;;;;;;10.25;9.20;;;;;;;26.16;44.46;92999.38;5048398;28;20170;-72
2022/08/05 08:31:42;;;;;;;11.20;10.02;;;;;;;26.32;43.37;93010.63;5048540;28;20248;-70
2022/08/05 08:34:07;;;;;;;11.15;10.15;;;;;;;26.73;43.11;93014.94;5048796;28;20190;-72
2022/08/05 08:36:33;;;;;;;10.95;9.90;;;;;;;26.68;43.19;93009.91;5048420;28;20237;-73
2022/08/05 08:38:58;;;;;;;10.20;9.23;;;;;;;26.53;43.67;93016.25;5048547;28;20197;-72
2022/08/05 08:41:26;;;;;;;15.55;10.68;;;;;;;26.57;42.16;93010.91;5048230;28;20222;-72
2022/08/05 08:43:54;;;;;;;10.52;9.50;;;;;;;27.10;39.63;93011.44;5046961;28;20195;-71
2022/08/05 08:46:22;;;;;;;8.90;8.15;;;;;;;27.15;39.71;93011.06;5047370;28;20221;-72
2022/08/05 08:48:50;;;;;;;9.45;8.82;;;;;;;26.82;40.82;92989.75;5048567;28;20218;-72
2022/08/05 08:51:18;;;;;;;8.18;7.57;;;;;;;27.13;39.46;93008.00;5048064;28;20253;-72
2022/08/05 08:53:43;;;;;;;8.43;7.78;;;;;;;27.29;37.72;93008.53;5048450;28;20197;-72
2022/08/05 08:56:09;;;;;;;8.80;8.20;;;;;;;27.14;38.31;93007.63;5046942;28;20238;-72
2022/08/05 08:58:34;;;;;;;11.65;8.82;;;;;;;27.00;39.02;92987.97;5048274;28;20230;-72
2022/08/05 09:01:00;;;;;;;9.48;8.73;;;;;;;26.97;40.18;93005.59;5048038;28;20273;-72
2022/08/05 09:03:27;;;;;;;8.75;8.15;;;;;;;26.36;39.43;92973.97;5047570;28;20209;-70
2022/08/05 09:05:52;;;;;;;8.60;7.95;;;;;;;26.99;38.41;92989.13;5050137;28;20230;-72
2022/08/05 09:08:18;;;;;;;9.82;8.98;;;;;;;27.33;37.87;93004.72;5050188;28;20200;-72
2022/08/05 09:10:44;;;;;;;8.45;7.85;;;;;;;27.39;36.28;92997.13;5051173;28;20230;-72
2022/08/05 09:13:14;;;;;;;7.70;7.30;;;;;;;27.33;34.64;92988.63;5050198;28;20205;-72
2022/08/05 09:15:40;;;;;;;7.55;7.15;;;;;;;27.51;34.27;92991.44;5050975;28;20230;-73
2022/08/05 09:18:09;;;;;;;8.00;7.50;;;;;;;27.32;34.46;92983.66;5049872;28;20245;-71
2022/08/05 09:20:36;;;;;;;8.18;7.78;;;;;;;27.49;34.75;92989.13;5049925;28;20230;-73
2022/08/05 09:23:05;;;;;;;7.97;7.50;;;;;;;27.44;34.53;92981.44;5050651;28;20182;-73
2022/08/05 09:25:32;;;;;;;8.43;7.93;;;;;;;27.46;35.08;92981.06;5051106;28;20225;-73
2022/08/05 09:28:13;;;;;;;7.88;7.43;;;;;;;27.43;35.18;92976.44;5050936;28;20190;-72
2022/08/05 09:30:42;;;;;;;8.15;7.65;;;;;;;27.99;34.83;92984.81;5050495;28;20222;-72
2022/08/05 09:33:08;;;;;;;8.98;8.25;;;;;;;27.90;34.59;92973.69;5046167;28;20222;-72
2022/08/05 09:35:34;;;;;;;9.45;8.75;;;;;;;28.00;35.19;92972.97;5051490;28;20299;-72
2022/08/05 09:37:59;;;;;;;8.00;7.60;;;;;;;28.10;35.84;92977.59;5051282;28;20199;-72
2022/08/05 09:40:39;;;;;;;8.00;7.50;;;;;;;28.12;35.14;92976.09;5051081;28;20228;-72
2022/08/05 09:43:06;;;;;;;8.60;8.00;;;;;;;27.93;34.71;92962.97;5046753;28;20205;-72
2022/08/05 09:45:38;;;;;;;8.63;7.90;;;;;;;27.35;35.34;92964.91;5050662;28;20226;-72
2022/08/05 09:48:39;;;;;;;8.18;7.72;;;;;;;26.98;35.96;92968.81;5050506;28;20201;-72
2022/08/05 09:51:10;;;;;;;8.68;8.07;;;;;;;27.46;36.88;92971.09;4970100;29;20224;-73
2022/08/05 09:53:46;;;;;;;8.93;8.35;;;;;;;28.07;34.60;92967.59;5033404;28;20229;-71
2022/08/05 09:56:12;;;;;;;8.73;8.23;;;;;;;28.11;34.60;92942.31;5050531;28;20232;-72
2022/08/05 09:58:37;;;;;;;9.30;8.65;;;;;;;28.33;34.51;92972.69;5043372;28;20221;-70
2022/08/05 10:01:05;;;;;;;9.70;8.90;;;;;;;27.90;37.62;92960.25;5048577;28;20236;-71
2022/08/05 10:03:32;;;;;;;14.52;9.85;;;;;;;28.21;36.61;92959.59;5049309;28;20261;-70
2022/08/05 10:06:18;;;;;;;9.82;9.13;;;;;;;28.51;34.11;92972.75;5048703;28;20242;-70
2022/08/05 10:08:43;;;;;;;12.57;9.43;;;;;;;28.22;34.83;92945.78;5049658;28;20189;-70
2022/08/05 10:11:14;;;;;;;8.48;7.97;;;;;;;28.25;34.92;92952.34;5048111;28;20236;-70
2022/08/05 10:13:41;;;;;;;8.95;8.38;;;;;;;28.29;33.38;92953.09;5049057;28;20190;-71
2022/08/05 10:16:30;;;;;;;9.40;8.80;;;;;;;28.13;34.07;92950.75;5047800;28;20226;-71
2022/08/05 10:18:56;;;;;;;8.43;7.93;;;;;;;27.79;36.26;92945.97;5046127;28;20212;-70
2022/08/05 10:21:22;;;;;;;8.45;7.85;;;;;;;27.92;35.11;92947.22;5049113;28;20419;-69
2022/08/05 10:23:47;;;;;;;9.55;8.95;;;;;;;27.69;35.39;92944.78;5049082;28;20223;-70
2022/08/05 10:26:13;;;;;;;8.98;8.38;;;;;;;27.56;35.48;92937.44;5049223;28;20638;-69
2022/08/05 10:28:40;;;;;;;9.55;8.85;;;;;;;28.07;34.36;92940.75;5049028;28;20196;-71
2022/08/05 10:31:06;;;;;;;8.35;7.85;;;;;;;28.13;35.28;92933.88;5046535;28;20229;-71
2022/08/05 10:33:33;;;;;;;8.80;8.30;;;;;;;28.32;35.14;92941.59;5049491;28;20190;-70
2022/08/05 10:36:02;;;;;;;8.55;7.95;;;;;;;28.56;33.87;92935.56;5048546;28;20225;-71
2022/08/05 10:38:29;;;;;;;9.15;8.55;;;;;;;28.69;34.32;92928.63;5048392;28;20221;-72
2022/08/05 10:41:00;;;;;;;8.98;8.38;;;;;;;28.69;33.82;92934.00;5048482;28;20210;-70
2022/08/05 10:43:46;;;;;;;9.23;8.63;;;;;;;29.05;33.86;92935.56;5048766;28;20204;-71
2022/08/05 10:46:14;;;;;;;8.73;8.02;;;;;;;28.98;32.05;92929.41;5048331;28;20252;-71
2022/08/05 10:48:42;;;;;;;9.07;8.32;;;;;;;28.78;33.35;92926.31;5048374;28;20193;-71
2022/08/05 10:51:07;;;;;;;8.30;7.80;;;;;;;28.83;33.25;92928.66;5048903;28;20230;-71
2022/08/05 10:53:43;;;;;;;8.73;8.02;;;;;;;28.87;32.51;92912.53;5048785;28;20250;-71
2022/08/05 10:56:10;;;;;;;9.18;8.57;;;;;;;28.86;32.79;92925.19;5048441;28;20216;-71
2022/08/05 10:58:59;;;;;;;8.93;8.32;;;;;;;28.64;32.53;92904.81;5048677;28;20214;-71
2022/08/05 11:01:34;;;;;;;9.30;8.70;;;;;;;28.92;34.37;92910.19;5047337;28;20217;-71
2022/08/05 11:04:30;;;;;;;8.05;7.32;;;;;;;29.05;31.68;92905.97;5047027;28;20188;-71
2022/08/05 11:06:56;;;;;;;8.23;7.72;;;;;;;29.23;34.57;92908.69;5048125;28;20206;-71
2022/08/05 11:09:24;;;;;;;9.25;8.55;;;;;;;29.69;32.14;92912.81;5045418;28;20307;-72
2022/08/05 11:11:51;;;;;;;8.57;8.07;;;;;;;29.84;31.29;92913.53;5048851;28;20183;-71
2022/08/05 11:14:25;;;;;;;8.85;8.10;;;;;;;29.86;30.89;92911.22;5048318;28;20175;-70
2022/08/05 11:17:29;;;;;;;8.70;8.10;;;;;;;29.37;32.01;92909.41;5048259;28;20280;-70
2022/08/05 11:19:57;;;;;;;9.63;7.85;;;;;;;29.23;32.01;92912.13;5047028;28;20312;-71
2022/08/05 11:22:38;;;;;;;8.38;7.68;;;;;;;29.31;32.52;92905.56;5047977;28;20205;-71
2022/08/05 11:25:31;;;;;;;8.75;8.07;;;;;;;28.82;32.46;92900.22;5047190;28;20224;-69
2022/08/05 11:28:16;;;;;;;8.50;7.93;;;;;;;28.74;31.94;92904.06;5047974;28;20213;-71
2022/08/05 11:30:57;;;;;;;10.02;9.20;;;;;;;28.99;32.85;92894.06;5041279;28;20236;-70
2022/08/05 11:33:29;;;;;;;8.60;8.00;;;;;;;29.40;32.41;92894.44;5047629;28;20197;-71